sensor_id;sensor_type;location;lat;lon;timestamp;P1;durP1;ratioP1;P2;durP2;ratioP2
15633;SDS011;14654;48.898;8.308;2022-11-30T00:01:27;33.53;;;27.67;;
15633;SDS011;14654;48.898;8.308;2022-11-30T00:03:55;34.60;;;29.83;;
15633;SDS011;14654;48.898;8.308;2022-11-30T00:06:21;32.17;;;28.67;;
15633;SDS011;14654;48.898;8.308;2022-11-30T00:08:56;31.57;;;27.17;;
15633;SDS011;14654;48.898;8.308;2022-11-30T00:11:23;30.53;;;26.90;;
15633;SDS011;14654;48.898;8.308;2022-11-30T00:13:50;34.93;;;28.97;;
15633;SDS011;14654;48.898;8.308;2022-11-30T00:16:15;32.33;;;28.73;;
15633;SDS011;14654;48.898;8.308;2022-11-30T00:18:41;34.13;;;28.87;;
15633;SDS011;14654;48.898;8.308;2022-11-30T00:21:07;31.30;;;27.87;;
15633;SDS011;14654;48.898;8.308;2022-11-30T00:23:37;33.37;;;29.17;;
15633;SDS011;14654;48.898;8.308;2022-11-30T00:26:04;34.47;;;28.73;;
15633;SDS011;14654;48.898;8.308;2022-11-30T00:28:34;32.73;;;28.83;;
15633;SDS011;14654;48.898;8.308;2022-11-30T00:31:04;33.33;;;28.83;;
15633;SDS011;14654;48.898;8.308;2022-11-30T00:33:32;33.50;;;27.77;;
15633;SDS011;14654;48.898;8.308;2022-11-30T00:35:59;33.47;;;28.00;;
15633;SDS011;14654;48.898;8.308;2022-11-30T00:38:26;33.17;;;29.47;;
15633;SDS011;14654;48.898;8.308;2022-11-30T00:40:52;28.80;;;25.80;;
15633;SDS011;14654;48.898;8.308;2022-11-30T00:43:18;29.37;;;25.73;;
15633;SDS011;14654;48.898;8.308;2022-11-30T00:45:43;29.73;;;25.93;;
15633;SDS011;14654;48.898;8.308;2022-11-30T00:48:09;29.07;;;25.83;;
15633;SDS011;14654;48.898;8.308;2022-11-30T00:50:34;30.10;;;26.80;;
15633;SDS011;14654;48.898;8.308;2022-11-30T00:52:59;29.67;;;26.57;;
15633;SDS011;14654;48.898;8.308;2022-11-30T00:55:24;28.90;;;25.90;;
15633;SDS011;14654;48.898;8.308;2022-11-30T00:57:51;28.20;;;25.20;;
15633;SDS011;14654;48.898;8.308;2022-11-30T01:00:16;29.53;;;25.53;;
15633;SDS011;14654;48.898;8.308;2022-11-30T01:02:42;29.53;;;26.53;;
15633;SDS011;14654;48.898;8.308;2022-11-30T01:05:07;30.47;;;27.27;;
15633;SDS011;14654;48.898;8.308;2022-11-30T01:07:33;31.83;;;28.27;;
15633;SDS011;14654;48.898;8.308;2022-11-30T01:09:58;29.33;;;26.17;;
15633;SDS011;14654;48.898;8.308;2022-11-30T01:12:23;30.60;;;27.30;;
15633;SDS011;14654;48.898;8.308;2022-11-30T01:14:49;28.60;;;25.50;;
15633;SDS011;14654;48.898;8.308;2022-11-30T01:17:14;28.47;;;25.47;;
15633;SDS011;14654;48.898;8.308;2022-11-30T01:19:39;33.07;;;25.43;;
15633;SDS011;14654;48.898;8.308;2022-11-30T01:22:05;28.30;;;25.10;;
15633;SDS011;14654;48.898;8.308;2022-11-30T01:24:30;28.40;;;25.40;;
15633;SDS011;14654;48.898;8.308;2022-11-30T01:26:55;28.67;;;25.57;;
15633;SDS011;14654;48.898;8.308;2022-11-30T01:29:21;27.73;;;24.80;;
15633;SDS011;14654;48.898;8.308;2022-11-30T01:31:46;29.30;;;26.10;;
15633;SDS011;14654;48.898;8.308;2022-11-30T01:34:11;28.60;;;25.53;;
15633;SDS011;14654;48.898;8.308;2022-11-30T01:36:36;29.70;;;26.53;;
15633;SDS011;14654;48.898;8.308;2022-11-30T01:39:05;29.00;;;26.03;;
15633;SDS011;14654;48.898;8.308;2022-11-30T01:41:32;27.13;;;24.40;;
15633;SDS011;14654;48.898;8.308;2022-11-30T01:51:38;28.13;;;25.33;;
15633;SDS011;14654;48.898;8.308;2022-11-30T01:54:07;29.43;;;26.23;;
15633;SDS011;14654;48.898;8.308;2022-11-30T01:56:34;28.17;;;25.30;;
15633;SDS011;14654;48.898;8.308;2022-11-30T01:59:01;27.97;;;25.17;;
15633;SDS011;14654;48.898;8.308;2022-11-30T02:01:27;29.53;;;26.63;;
15633;SDS011;14654;48.898;8.308;2022-11-30T02:04:02;27.40;;;24.50;;
15633;SDS011;14654;48.898;8.308;2022-11-30T02:06:30;29.47;;;26.37;;
15633;SDS011;14654;48.898;8.308;2022-11-30T02:08:55;29.43;;;25.77;;
15633;SDS011;14654;48.898;8.308;2022-11-30T02:11:21;27.87;;;24.97;;
15633;SDS011;14654;48.898;8.308;2022-11-30T02:24:34;31.23;;;27.27;;
15633;SDS011;14654;48.898;8.308;2022-11-30T02:32:34;31.37;;;26.53;;
15633;SDS011;14654;48.898;8.308;2022-11-30T02:35:07;36.37;;;28.33;;
15633;SDS011;14654;48.898;8.308;2022-11-30T02:37:34;33.23;;;28.30;;
15633;SDS011;14654;48.898;8.308;2022-11-30T02:40:05;33.77;;;26.33;;
15633;SDS011;14654;48.898;8.308;2022-11-30T02:42:32;34.83;;;27.87;;
15633;SDS011;14654;48.898;8.308;2022-11-30T02:44:57;33.23;;;27.40;;
15633;SDS011;14654;48.898;8.308;2022-11-30T02:47:35;34.93;;;27.70;;
15633;SDS011;14654;48.898;8.308;2022-11-30T02:50:17;37.83;;;29.70;;
15633;SDS011;14654;48.898;8.308;2022-11-30T02:52:48;37.50;;;28.77;;
15633;SDS011;14654;48.898;8.308;2022-11-30T02:55:15;30.63;;;26.07;;
15633;SDS011;14654;48.898;8.308;2022-11-30T02:57:42;34.80;;;27.83;;
15633;SDS011;14654;48.898;8.308;2022-11-30T03:00:08;31.77;;;26.03;;
15633;SDS011;14654;48.898;8.308;2022-11-30T03:02:35;35.63;;;27.83;;
15633;SDS011;14654;48.898;8.308;2022-11-30T03:05:00;36.77;;;28.07;;
15633;SDS011;14654;48.898;8.308;2022-11-30T03:07:26;35.33;;;27.07;;
15633;SDS011;14654;48.898;8.308;2022-11-30T03:09:51;37.90;;;28.93;;
15633;SDS011;14654;48.898;8.308;2022-11-30T03:12:17;39.93;;;28.60;;
15633;SDS011;14654;48.898;8.308;2022-11-30T03:14:42;36.37;;;28.20;;
15633;SDS011;14654;48.898;8.308;2022-11-30T03:17:07;40.13;;;29.47;;
15633;SDS011;14654;48.898;8.308;2022-11-30T03:19:33;37.60;;;26.93;;
15633;SDS011;14654;48.898;8.308;2022-11-30T03:21:58;35.67;;;28.73;;
15633;SDS011;14654;48.898;8.308;2022-11-30T03:24:24;34.07;;;26.97;;
15633;SDS011;14654;48.898;8.308;2022-11-30T03:26:50;41.47;;;28.20;;
15633;SDS011;14654;48.898;8.308;2022-11-30T03:29:15;36.00;;;26.73;;
15633;SDS011;14654;48.898;8.308;2022-11-30T03:31:41;37.57;;;27.00;;
15633;SDS011;14654;48.898;8.308;2022-11-30T03:34:06;36.80;;;28.37;;
15633;SDS011;14654;48.898;8.308;2022-11-30T03:36:31;38.93;;;27.50;;
15633;SDS011;14654;48.898;8.308;2022-11-30T03:38:56;34.80;;;28.20;;
15633;SDS011;14654;48.898;8.308;2022-11-30T03:41:22;36.90;;;28.37;;
15633;SDS011;14654;48.898;8.308;2022-11-30T03:43:47;39.20;;;28.90;;
15633;SDS011;14654;48.898;8.308;2022-11-30T03:46:12;37.73;;;28.53;;
15633;SDS011;14654;48.898;8.308;2022-11-30T03:48:38;39.13;;;29.73;;
15633;SDS011;14654;48.898;8.308;2022-11-30T03:51:07;42.93;;;29.10;;
15633;SDS011;14654;48.898;8.308;2022-11-30T03:53:35;38.30;;;28.53;;
15633;SDS011;14654;48.898;8.308;2022-11-30T03:56:01;40.53;;;29.07;;
15633;SDS011;14654;48.898;8.308;2022-11-30T03:58:28;43.17;;;30.53;;
15633;SDS011;14654;48.898;8.308;2022-11-30T04:01:00;41.77;;;29.07;;
15633;SDS011;14654;48.898;8.308;2022-11-30T04:03:37;42.93;;;31.43;;
15633;SDS011;14654;48.898;8.308;2022-11-30T04:06:03;43.80;;;30.40;;
15633;SDS011;14654;48.898;8.308;2022-11-30T04:08:29;42.67;;;30.90;;
15633;SDS011;14654;48.898;8.308;2022-11-30T04:10:55;42.83;;;30.97;;
15633;SDS011;14654;48.898;8.308;2022-11-30T04:13:22;44.43;;;30.93;;
15633;SDS011;14654;48.898;8.308;2022-11-30T04:15:49;45.43;;;31.20;;
15633;SDS011;14654;48.898;8.308;2022-11-30T04:18:17;42.53;;;30.27;;
15633;SDS011;14654;48.898;8.308;2022-11-30T04:20:44;40.07;;;29.03;;
15633;SDS011;14654;48.898;8.308;2022-11-30T04:23:10;42.40;;;29.33;;
15633;SDS011;14654;48.898;8.308;2022-11-30T04:25:37;40.70;;;29.77;;
15633;SDS011;14654;48.898;8.308;2022-11-30T04:28:03;38.90;;;28.63;;
15633;SDS011;14654;48.898;8.308;2022-11-30T04:30:28;42.67;;;30.53;;
15633;SDS011;14654;48.898;8.308;2022-11-30T04:32:53;42.63;;;31.37;;
15633;SDS011;14654;48.898;8.308;2022-11-30T04:35:19;40.97;;;30.20;;
15633;SDS011;14654;48.898;8.308;2022-11-30T04:37:44;41.30;;;30.33;;
15633;SDS011;14654;48.898;8.308;2022-11-30T04:40:10;36.87;;;29.90;;
15633;SDS011;14654;48.898;8.308;2022-11-30T04:42:36;39.63;;;29.27;;
15633;SDS011;14654;48.898;8.308;2022-11-30T04:45:02;37.57;;;29.20;;
15633;SDS011;14654;48.898;8.308;2022-11-30T04:47:27;39.40;;;29.63;;
15633;SDS011;14654;48.898;8.308;2022-11-30T04:49:53;40.90;;;30.73;;
15633;SDS011;14654;48.898;8.308;2022-11-30T04:52:18;39.50;;;29.90;;
15633;SDS011;14654;48.898;8.308;2022-11-30T04:54:44;40.10;;;30.27;;
15633;SDS011;14654;48.898;8.308;2022-11-30T04:57:09;33.80;;;27.87;;
15633;SDS011;14654;48.898;8.308;2022-11-30T04:59:34;35.97;;;29.43;;
15633;SDS011;14654;48.898;8.308;2022-11-30T05:02:00;35.90;;;28.97;;
15633;SDS011;14654;48.898;8.308;2022-11-30T05:04:25;38.57;;;30.60;;
15633;SDS011;14654;48.898;8.308;2022-11-30T05:06:50;38.13;;;30.00;;
15633;SDS011;14654;48.898;8.308;2022-11-30T05:09:16;36.77;;;29.50;;
15633;SDS011;14654;48.898;8.308;2022-11-30T05:11:41;33.50;;;28.07;;
15633;SDS011;14654;48.898;8.308;2022-11-30T05:14:07;37.57;;;29.27;;
15633;SDS011;14654;48.898;8.308;2022-11-30T05:16:32;37.67;;;30.70;;
15633;SDS011;14654;48.898;8.308;2022-11-30T05:18:58;39.27;;;30.77;;
15633;SDS011;14654;48.898;8.308;2022-11-30T05:21:23;34.03;;;28.50;;
15633;SDS011;14654;48.898;8.308;2022-11-30T05:23:48;38.07;;;29.80;;
15633;SDS011;14654;48.898;8.308;2022-11-30T05:26:14;29.93;;;26.40;;
15633;SDS011;14654;48.898;8.308;2022-11-30T05:28:39;34.60;;;29.23;;
15633;SDS011;14654;48.898;8.308;2022-11-30T05:31:05;34.30;;;27.17;;
15633;SDS011;14654;48.898;8.308;2022-11-30T05:33:30;32.90;;;28.70;;
15633;SDS011;14654;48.898;8.308;2022-11-30T05:35:57;33.43;;;28.17;;
15633;SDS011;14654;48.898;8.308;2022-11-30T05:38:22;33.37;;;27.93;;
15633;SDS011;14654;48.898;8.308;2022-11-30T05:40:47;37.53;;;29.70;;
15633;SDS011;14654;48.898;8.308;2022-11-30T05:43:13;36.63;;;27.80;;
15633;SDS011;14654;48.898;8.308;2022-11-30T05:45:38;31.10;;;27.53;;
15633;SDS011;14654;48.898;8.308;2022-11-30T05:48:04;31.27;;;26.67;;
15633;SDS011;14654;48.898;8.308;2022-11-30T05:50:29;31.23;;;26.63;;
15633;SDS011;14654;48.898;8.308;2022-11-30T05:52:55;30.87;;;26.50;;
15633;SDS011;14654;48.898;8.308;2022-11-30T05:55:21;34.03;;;28.70;;
15633;SDS011;14654;48.898;8.308;2022-11-30T05:57:51;29.73;;;26.07;;
15633;SDS011;14654;48.898;8.308;2022-11-30T06:00:16;29.07;;;25.43;;
15633;SDS011;14654;48.898;8.308;2022-11-30T06:02:42;26.80;;;23.90;;
15633;SDS011;14654;48.898;8.308;2022-11-30T06:05:07;27.03;;;24.13;;
15633;SDS011;14654;48.898;8.308;2022-11-30T06:07:33;28.37;;;24.47;;
15633;SDS011;14654;48.898;8.308;2022-11-30T06:09:58;30.53;;;26.23;;
15633;SDS011;14654;48.898;8.308;2022-11-30T06:12:24;27.37;;;24.33;;
15633;SDS011;14654;48.898;8.308;2022-11-30T06:14:49;30.30;;;26.27;;
15633;SDS011;14654;48.898;8.308;2022-11-30T06:17:17;30.00;;;25.87;;
15633;SDS011;14654;48.898;8.308;2022-11-30T06:19:43;28.63;;;24.37;;
15633;SDS011;14654;48.898;8.308;2022-11-30T06:22:08;27.97;;;24.97;;
15633;SDS011;14654;48.898;8.308;2022-11-30T06:24:33;28.20;;;24.40;;
15633;SDS011;14654;48.898;8.308;2022-11-30T06:26:59;29.43;;;24.53;;
15633;SDS011;14654;48.898;8.308;2022-11-30T06:29:24;28.73;;;25.73;;
15633;SDS011;14654;48.898;8.308;2022-11-30T06:31:49;27.30;;;24.43;;
15633;SDS011;14654;48.898;8.308;2022-11-30T06:34:15;27.60;;;24.67;;
15633;SDS011;14654;48.898;8.308;2022-11-30T06:36:41;27.40;;;24.60;;
15633;SDS011;14654;48.898;8.308;2022-11-30T06:39:06;26.33;;;23.67;;
15633;SDS011;14654;48.898;8.308;2022-11-30T06:41:33;26.07;;;23.37;;
15633;SDS011;14654;48.898;8.308;2022-11-30T06:43:58;25.27;;;22.67;;
15633;SDS011;14654;48.898;8.308;2022-11-30T06:46:24;24.13;;;21.63;;
15633;SDS011;14654;48.898;8.308;2022-11-30T06:48:51;23.50;;;21.20;;
15633;SDS011;14654;48.898;8.308;2022-11-30T06:51:16;22.43;;;20.20;;
15633;SDS011;14654;48.898;8.308;2022-11-30T06:53:43;23.67;;;21.27;;
15633;SDS011;14654;48.898;8.308;2022-11-30T06:56:08;24.10;;;21.77;;
15633;SDS011;14654;48.898;8.308;2022-11-30T06:58:35;23.63;;;21.33;;
15633;SDS011;14654;48.898;8.308;2022-11-30T07:01:03;23.17;;;20.93;;
15633;SDS011;14654;48.898;8.308;2022-11-30T07:03:29;23.93;;;21.53;;
15633;SDS011;14654;48.898;8.308;2022-11-30T07:05:54;22.80;;;20.33;;
15633;SDS011;14654;48.898;8.308;2022-11-30T07:08:20;21.87;;;19.77;;
15633;SDS011;14654;48.898;8.308;2022-11-30T07:10:45;21.10;;;19.03;;
15633;SDS011;14654;48.898;8.308;2022-11-30T07:13:17;22.20;;;20.00;;
15633;SDS011;14654;48.898;8.308;2022-11-30T07:15:43;20.07;;;17.90;;
15633;SDS011;14654;48.898;8.308;2022-11-30T07:18:12;20.53;;;18.53;;
15633;SDS011;14654;48.898;8.308;2022-11-30T07:20:38;20.70;;;18.57;;
15633;SDS011;14654;48.898;8.308;2022-11-30T07:23:04;20.47;;;18.37;;
15633;SDS011;14654;48.898;8.308;2022-11-30T07:25:51;19.83;;;17.90;;
15633;SDS011;14654;48.898;8.308;2022-11-30T07:28:34;20.27;;;18.20;;
15633;SDS011;14654;48.898;8.308;2022-11-30T07:31:11;19.00;;;17.20;;
15633;SDS011;14654;48.898;8.308;2022-11-30T07:33:41;20.00;;;18.10;;
15633;SDS011;14654;48.898;8.308;2022-11-30T07:36:07;20.13;;;18.10;;
15633;SDS011;14654;48.898;8.308;2022-11-30T07:38:33;20.33;;;18.40;;
15633;SDS011;14654;48.898;8.308;2022-11-30T07:40:58;20.00;;;18.00;;
15633;SDS011;14654;48.898;8.308;2022-11-30T07:43:23;20.97;;;18.87;;
15633;SDS011;14654;48.898;8.308;2022-11-30T07:45:51;19.10;;;17.20;;
15633;SDS011;14654;48.898;8.308;2022-11-30T07:48:17;19.97;;;18.13;;
15633;SDS011;14654;48.898;8.308;2022-11-30T07:50:43;19.73;;;17.83;;
15633;SDS011;14654;48.898;8.308;2022-11-30T07:53:09;19.50;;;17.60;;
15633;SDS011;14654;48.898;8.308;2022-11-30T07:55:34;20.07;;;18.23;;
15633;SDS011;14654;48.898;8.308;2022-11-30T07:57:59;20.77;;;18.73;;
15633;SDS011;14654;48.898;8.308;2022-11-30T08:00:25;20.10;;;18.10;;
15633;SDS011;14654;48.898;8.308;2022-11-30T08:02:50;20.23;;;18.30;;
15633;SDS011;14654;48.898;8.308;2022-11-30T08:05:16;20.03;;;17.97;;
15633;SDS011;14654;48.898;8.308;2022-11-30T08:07:41;19.77;;;17.83;;
15633;SDS011;14654;48.898;8.308;2022-11-30T08:10:07;21.30;;;19.20;;
15633;SDS011;14654;48.898;8.308;2022-11-30T08:12:32;21.53;;;19.53;;
15633;SDS011;14654;48.898;8.308;2022-11-30T08:14:58;20.63;;;18.57;;
15633;SDS011;14654;48.898;8.308;2022-11-30T08:17:23;19.67;;;17.77;;
15633;SDS011;14654;48.898;8.308;2022-11-30T08:19:48;20.20;;;18.33;;
15633;SDS011;14654;48.898;8.308;2022-11-30T08:22:14;20.87;;;18.80;;
15633;SDS011;14654;48.898;8.308;2022-11-30T08:24:39;19.70;;;17.87;;
15633;SDS011;14654;48.898;8.308;2022-11-30T08:27:04;20.00;;;17.97;;
15633;SDS011;14654;48.898;8.308;2022-11-30T08:29:30;19.73;;;17.93;;
15633;SDS011;14654;48.898;8.308;2022-11-30T08:31:55;20.80;;;18.60;;
15633;SDS011;14654;48.898;8.308;2022-11-30T08:34:20;19.33;;;17.53;;
15633;SDS011;14654;48.898;8.308;2022-11-30T08:36:45;20.70;;;18.50;;
15633;SDS011;14654;48.898;8.308;2022-11-30T08:39:11;20.53;;;18.17;;
15633;SDS011;14654;48.898;8.308;2022-11-30T08:41:37;19.80;;;17.87;;
15633;SDS011;14654;48.898;8.308;2022-11-30T08:44:03;21.53;;;19.27;;
15633;SDS011;14654;48.898;8.308;2022-11-30T08:46:29;20.40;;;18.33;;
15633;SDS011;14654;48.898;8.308;2022-11-30T08:48:55;19.63;;;17.77;;
15633;SDS011;14654;48.898;8.308;2022-11-30T08:51:20;20.03;;;18.13;;
15633;SDS011;14654;48.898;8.308;2022-11-30T08:53:46;19.67;;;17.83;;
15633;SDS011;14654;48.898;8.308;2022-11-30T08:56:13;19.53;;;17.73;;
15633;SDS011;14654;48.898;8.308;2022-11-30T08:58:43;19.27;;;17.47;;
15633;SDS011;14654;48.898;8.308;2022-11-30T09:03:40;19.50;;;17.60;;
15633;SDS011;14654;48.898;8.308;2022-11-30T09:06:13;20.27;;;18.37;;
15633;SDS011;14654;48.898;8.308;2022-11-30T09:08:50;19.67;;;17.77;;
15633;SDS011;14654;48.898;8.308;2022-11-30T09:11:30;18.47;;;16.80;;
15633;SDS011;14654;48.898;8.308;2022-11-30T09:13:57;19.00;;;17.20;;
15633;SDS011;14654;48.898;8.308;2022-11-30T09:16:25;18.07;;;16.37;;
15633;SDS011;14654;48.898;8.308;2022-11-30T09:18:51;17.87;;;16.27;;
15633;SDS011;14654;48.898;8.308;2022-11-30T09:21:18;18.60;;;16.87;;
15633;SDS011;14654;48.898;8.308;2022-11-30T09:23:45;19.80;;;17.97;;
15633;SDS011;14654;48.898;8.308;2022-11-30T09:26:12;17.87;;;16.30;;
15633;SDS011;14654;48.898;8.308;2022-11-30T09:28:40;17.73;;;16.17;;
15633;SDS011;14654;48.898;8.308;2022-11-30T09:31:07;18.97;;;17.07;;
15633;SDS011;14654;48.898;8.308;2022-11-30T09:33:37;18.40;;;16.80;;
15633;SDS011;14654;48.898;8.308;2022-11-30T09:36:04;18.83;;;17.03;;
15633;SDS011;14654;48.898;8.308;2022-11-30T09:38:31;19.47;;;17.73;;
15633;SDS011;14654;48.898;8.308;2022-11-30T09:40:58;17.37;;;15.77;;
15633;SDS011;14654;48.898;8.308;2022-11-30T09:43:31;17.70;;;15.97;;
15633;SDS011;14654;48.898;8.308;2022-11-30T09:46:02;18.00;;;16.43;;
15633;SDS011;14654;48.898;8.308;2022-11-30T09:48:32;17.57;;;15.97;;
15633;SDS011;14654;48.898;8.308;2022-11-30T09:51:03;17.87;;;16.17;;
15633;SDS011;14654;48.898;8.308;2022-11-30T09:53:39;16.60;;;15.00;;
15633;SDS011;14654;48.898;8.308;2022-11-30T09:56:41;17.07;;;15.37;;
15633;SDS011;14654;48.898;8.308;2022-11-30T10:01:26;16.57;;;15.07;;
15633;SDS011;14654;48.898;8.308;2022-11-30T10:03:52;16.07;;;14.57;;
15633;SDS011;14654;48.898;8.308;2022-11-30T10:09:03;13.93;;;12.73;;
15633;SDS011;14654;48.898;8.308;2022-11-30T10:14:26;14.70;;;13.43;;
15633;SDS011;14654;48.898;8.308;2022-11-30T10:17:28;14.13;;;12.83;;
15633;SDS011;14654;48.898;8.308;2022-11-30T10:20:14;14.33;;;13.03;;
15633;SDS011;14654;48.898;8.308;2022-11-30T10:30:30;15.60;;;14.20;;
15633;SDS011;14654;48.898;8.308;2022-11-30T10:33:04;15.40;;;14.00;;
15633;SDS011;14654;48.898;8.308;2022-11-30T10:35:39;14.27;;;12.97;;
15633;SDS011;14654;48.898;8.308;2022-11-30T10:38:20;14.63;;;13.33;;
15633;SDS011;14654;48.898;8.308;2022-11-30T10:43:31;15.13;;;13.63;;
15633;SDS011;14654;48.898;8.308;2022-11-30T10:46:03;15.07;;;13.67;;
15633;SDS011;14654;48.898;8.308;2022-11-30T10:48:42;14.77;;;13.43;;
15633;SDS011;14654;48.898;8.308;2022-11-30T10:51:12;15.27;;;13.87;;
15633;SDS011;14654;48.898;8.308;2022-11-30T10:53:38;14.60;;;13.27;;
15633;SDS011;14654;48.898;8.308;2022-11-30T10:58:39;15.17;;;13.77;;
15633;SDS011;14654;48.898;8.308;2022-11-30T11:01:35;15.17;;;13.77;;
15633;SDS011;14654;48.898;8.308;2022-11-30T11:04:21;14.83;;;13.43;;
15633;SDS011;14654;48.898;8.308;2022-11-30T11:06:57;15.37;;;13.83;;
15633;SDS011;14654;48.898;8.308;2022-11-30T11:09:32;14.60;;;13.23;;
15633;SDS011;14654;48.898;8.308;2022-11-30T11:12:15;15.07;;;13.47;;
15633;SDS011;14654;48.898;8.308;2022-11-30T11:14:43;14.77;;;13.47;;
15633;SDS011;14654;48.898;8.308;2022-11-30T11:19:44;14.53;;;13.20;;
15633;SDS011;14654;48.898;8.308;2022-11-30T11:24:39;15.10;;;13.80;;
15633;SDS011;14654;48.898;8.308;2022-11-30T11:27:04;14.77;;;13.43;;
15633;SDS011;14654;48.898;8.308;2022-11-30T11:29:31;14.77;;;13.37;;
15633;SDS011;14654;48.898;8.308;2022-11-30T11:34:48;14.53;;;13.17;;
15633;SDS011;14654;48.898;8.308;2022-11-30T11:37:22;14.90;;;13.60;;
15633;SDS011;14654;48.898;8.308;2022-11-30T11:40:14;14.37;;;12.97;;
15633;SDS011;14654;48.898;8.308;2022-11-30T11:45:30;15.10;;;13.70;;
15633;SDS011;14654;48.898;8.308;2022-11-30T11:48:03;15.90;;;14.20;;
15633;SDS011;14654;48.898;8.308;2022-11-30T11:50:35;15.17;;;13.67;;
15633;SDS011;14654;48.898;8.308;2022-11-30T11:55:50;14.77;;;13.37;;
15633;SDS011;14654;48.898;8.308;2022-11-30T11:58:21;15.37;;;13.90;;
15633;SDS011;14654;48.898;8.308;2022-11-30T12:00:53;15.33;;;13.93;;
15633;SDS011;14654;48.898;8.308;2022-11-30T12:06:23;15.53;;;14.17;;
15633;SDS011;14654;48.898;8.308;2022-11-30T12:08:55;15.67;;;14.07;;
15633;SDS011;14654;48.898;8.308;2022-11-30T12:11:38;16.53;;;14.93;;
15633;SDS011;14654;48.898;8.308;2022-11-30T12:14:10;16.53;;;14.83;;
15633;SDS011;14654;48.898;8.308;2022-11-30T12:24:30;15.73;;;14.23;;
15633;SDS011;14654;48.898;8.308;2022-11-30T12:27:15;14.60;;;13.20;;
15633;SDS011;14654;48.898;8.308;2022-11-30T12:32:54;15.50;;;14.00;;
15633;SDS011;14654;48.898;8.308;2022-11-30T12:35:33;15.03;;;13.47;;
15633;SDS011;14654;48.898;8.308;2022-11-30T12:49:07;15.30;;;13.33;;
15633;SDS011;14654;48.898;8.308;2022-11-30T12:51:52;14.43;;;13.13;;
15633;SDS011;14654;48.898;8.308;2022-11-30T12:57:05;15.80;;;14.30;;
15633;SDS011;14654;48.898;8.308;2022-11-30T12:59:46;15.50;;;14.13;;
15633;SDS011;14654;48.898;8.308;2022-11-30T13:05:35;14.93;;;13.63;;
15633;SDS011;14654;48.898;8.308;2022-11-30T13:08:04;15.63;;;14.17;;
15633;SDS011;14654;48.898;8.308;2022-11-30T13:10:43;15.87;;;14.43;;
15633;SDS011;14654;48.898;8.308;2022-11-30T13:13:15;15.17;;;13.70;;
15633;SDS011;14654;48.898;8.308;2022-11-30T13:15:46;15.97;;;14.37;;
15633;SDS011;14654;48.898;8.308;2022-11-30T13:18:15;15.13;;;13.73;;
15633;SDS011;14654;48.898;8.308;2022-11-30T13:23:20;16.13;;;14.53;;
15633;SDS011;14654;48.898;8.308;2022-11-30T13:41:36;16.40;;;14.70;;
15633;SDS011;14654;48.898;8.308;2022-11-30T13:44:02;15.27;;;13.87;;
15633;SDS011;14654;48.898;8.308;2022-11-30T13:46:28;14.73;;;13.23;;
15633;SDS011;14654;48.898;8.308;2022-11-30T13:49:10;13.87;;;12.63;;
15633;SDS011;14654;48.898;8.308;2022-11-30T13:51:40;15.20;;;13.77;;
15633;SDS011;14654;48.898;8.308;2022-11-30T14:10:32;17.20;;;15.50;;
15633;SDS011;14654;48.898;8.308;2022-11-30T14:15:25;17.23;;;15.60;;
15633;SDS011;14654;48.898;8.308;2022-11-30T14:17:51;16.27;;;14.77;;
15633;SDS011;14654;48.898;8.308;2022-11-30T14:20:21;16.10;;;14.53;;
15633;SDS011;14654;48.898;8.308;2022-11-30T14:22:51;16.97;;;15.37;;
15633;SDS011;14654;48.898;8.308;2022-11-30T14:25:17;17.47;;;15.87;;
15633;SDS011;14654;48.898;8.308;2022-11-30T14:27:44;17.20;;;15.57;;
15633;SDS011;14654;48.898;8.308;2022-11-30T14:30:14;17.80;;;16.10;;
15633;SDS011;14654;48.898;8.308;2022-11-30T14:32:43;18.47;;;16.77;;
15633;SDS011;14654;48.898;8.308;2022-11-30T14:35:16;19.07;;;17.37;;
15633;SDS011;14654;48.898;8.308;2022-11-30T14:37:44;19.67;;;17.73;;
15633;SDS011;14654;48.898;8.308;2022-11-30T14:40:17;19.90;;;18.00;;
15633;SDS011;14654;48.898;8.308;2022-11-30T14:42:48;21.17;;;19.17;;
15633;SDS011;14654;48.898;8.308;2022-11-30T14:45:18;20.37;;;18.47;;
15633;SDS011;14654;48.898;8.308;2022-11-30T14:47:48;19.83;;;17.83;;
15633;SDS011;14654;48.898;8.308;2022-11-30T14:50:23;19.23;;;17.43;;
15633;SDS011;14654;48.898;8.308;2022-11-30T15:01:21;17.43;;;15.73;;
15633;SDS011;14654;48.898;8.308;2022-11-30T15:03:49;17.47;;;15.97;;
15633;SDS011;14654;48.898;8.308;2022-11-30T15:06:18;18.93;;;17.00;;
15633;SDS011;14654;48.898;8.308;2022-11-30T15:08:50;18.80;;;17.07;;
15633;SDS011;14654;48.898;8.308;2022-11-30T15:11:18;18.43;;;16.73;;
15633;SDS011;14654;48.898;8.308;2022-11-30T15:13:51;18.50;;;16.80;;
15633;SDS011;14654;48.898;8.308;2022-11-30T15:16:20;17.33;;;15.73;;
15633;SDS011;14654;48.898;8.308;2022-11-30T15:18:50;16.93;;;15.33;;
15633;SDS011;14654;48.898;8.308;2022-11-30T15:21:22;16.10;;;14.70;;
15633;SDS011;14654;48.898;8.308;2022-11-30T15:23:48;14.67;;;13.33;;
15633;SDS011;14654;48.898;8.308;2022-11-30T15:26:28;15.57;;;14.17;;
15633;SDS011;14654;48.898;8.308;2022-11-30T15:29:06;16.20;;;14.70;;
15633;SDS011;14654;48.898;8.308;2022-11-30T15:31:38;15.10;;;13.67;;
15633;SDS011;14654;48.898;8.308;2022-11-30T15:34:14;15.30;;;13.90;;
15633;SDS011;14654;48.898;8.308;2022-11-30T15:36:42;14.17;;;12.87;;
15633;SDS011;14654;48.898;8.308;2022-11-30T15:39:13;13.17;;;11.97;;
15633;SDS011;14654;48.898;8.308;2022-11-30T15:41:44;13.57;;;12.30;;
15633;SDS011;14654;48.898;8.308;2022-11-30T15:46:57;21.23;;;19.60;;
15633;SDS011;14654;48.898;8.308;2022-11-30T15:49:25;21.20;;;19.50;;
15633;SDS011;14654;48.898;8.308;2022-11-30T15:54:44;19.83;;;18.10;;
15633;SDS011;14654;48.898;8.308;2022-11-30T15:57:21;22.40;;;20.50;;
15633;SDS011;14654;48.898;8.308;2022-11-30T16:02:39;47.77;;;44.10;;
15633;SDS011;14654;48.898;8.308;2022-11-30T16:07:35;21.43;;;19.63;;
15633;SDS011;14654;48.898;8.308;2022-11-30T16:10:09;17.47;;;15.97;;
15633;SDS011;14654;48.898;8.308;2022-11-30T16:12:39;18.00;;;16.40;;
15633;SDS011;14654;48.898;8.308;2022-11-30T16:15:26;18.97;;;17.17;;
15633;SDS011;14654;48.898;8.308;2022-11-30T16:20:43;20.07;;;18.27;;
15633;SDS011;14654;48.898;8.308;2022-11-30T16:23:13;19.43;;;17.70;;
15633;SDS011;14654;48.898;8.308;2022-11-30T16:25:40;18.73;;;17.03;;
15633;SDS011;14654;48.898;8.308;2022-11-30T16:28:09;19.23;;;17.20;;
15633;SDS011;14654;48.898;8.308;2022-11-30T16:30:36;16.77;;;15.17;;
15633;SDS011;14654;48.898;8.308;2022-11-30T16:33:02;19.00;;;17.20;;
15633;SDS011;14654;48.898;8.308;2022-11-30T16:35:38;16.07;;;14.67;;
15633;SDS011;14654;48.898;8.308;2022-11-30T16:38:06;18.27;;;16.57;;
15633;SDS011;14654;48.898;8.308;2022-11-30T16:40:32;16.83;;;15.33;;
15633;SDS011;14654;48.898;8.308;2022-11-30T16:42:58;17.03;;;15.53;;
15633;SDS011;14654;48.898;8.308;2022-11-30T16:45:24;16.97;;;15.47;;
15633;SDS011;14654;48.898;8.308;2022-11-30T16:47:52;18.03;;;16.43;;
15633;SDS011;14654;48.898;8.308;2022-11-30T16:50:18;19.23;;;17.47;;
15633;SDS011;14654;48.898;8.308;2022-11-30T16:52:43;19.10;;;17.30;;
15633;SDS011;14654;48.898;8.308;2022-11-30T16:55:13;18.83;;;17.13;;
15633;SDS011;14654;48.898;8.308;2022-11-30T16:57:40;19.57;;;17.77;;
15633;SDS011;14654;48.898;8.308;2022-11-30T17:00:06;20.23;;;18.23;;